Time,TemperatureF,DewpointF,PressureIn,WindDirection,WindDirectionDegrees,WindSpeedMPH,WindSpeedGustMPH,Humidity,HourlyPrecipIn,Conditions,Clouds,dailyrainin,SoftwareType,DateUTC
2013-04-05 06:30:00,70.5,65.8,29.83,SSW,202,5.0,12.0,85,0.00,,SKC,0.46,VWS V14.01,2013-04-05 10:30:00,
2013-04-05 07:31:00,70.5,65.8,29.83,SSW,202,5.0,12.0,85,0.00,,SKC,0.46,VWS V14.01,2013-04-05 11:31:00,
2013-04-05 07:32:00,70.5,65.1,29.86,SW,223,5.0,5.0,83,0.01,,SKC,0.44,VWS V14.01,2013-04-05 11:32:00,
2013-04-05 07:37:00,70.0,65.3,29.87,SW,215,7.0,8.0,85,0.01,,SKC,0.44,VWS V14.01,2013-04-05 11:37:00,
2013-04-05 07:42:00,69.6,65.2,29.87,South,179,4.0,12.0,86,0.02,,SKC,0.45,VWS V14.01,2013-04-05 11:42:00,
2013-04-05 07:47:00,69.3,65.3,29.87,SSW,199,7.0,12.0,87,0.02,,SKC,0.45,VWS V14.01,2013-04-05 11:47:00,
2013-04-05 07:52:00,69.1,65.4,29.88,SW,217,7.0,12.0,88,0.03,,SKC,0.46,VWS V14.01,2013-04-05 11:52:00,
2013-04-05 07:57:00,68.9,65.5,29.89,WSW,246,5.0,12.0,89,0.04,,SKC,0.47,VWS V14.01,2013-04-05 11:57:00,
2013-04-05 08:02:00,68.7,65.7,29.90,SW,235,8.0,9.0,90,0.01,,SKC,0.48,VWS V14.01,2013-04-05 12:02:00,
2013-04-05 08:07:00,68.5,65.8,29.90,SW,232,6.0,12.0,91,0.02,,SKC,0.49,VWS V14.01,2013-04-05 12:07:00,
2013-04-05 08:12:00,68.4,65.7,29.91,West,261,13.0,15.0,91,0.03,,SKC,0.50,VWS V14.01,2013-04-05 12:12:00,
2013-04-05 08:17:00,68.4,65.7,29.91,SSW,206,8.0,15.0,91,0.04,,SKC,0.51,VWS V14.01,2013-04-05 12:17:00,
2013-04-05 08:22:00,68.4,65.7,29.92,SW,218,9.0,16.0,91,0.04,,SKC,0.51,VWS V14.01,2013-04-05 12:22:00,
2013-04-05 08:27:00,68.1,65.7,29.92,WSW,240,5.0,16.0,92,0.05,,SKC,0.52,VWS V14.01,2013-04-05 12:27:00,
2013-04-05 08:32:00,67.8,65.4,29.92,SW,214,7.0,18.0,92,0.07,,SKC,0.54,VWS V14.01,2013-04-05 12:32:00,
2013-04-05 08:37:00,67.5,65.1,29.92,WSW,248,13.0,18.0,92,0.09,,SKC,0.56,VWS V14.01,2013-04-05 12:37:00,
2013-04-05 08:42:00,67.2,64.8,29.92,WSW,252,10.0,18.0,92,0.12,,SKC,0.59,VWS V14.01,2013-04-05 12:42:00,
2013-04-05 08:47:00,66.9,64.5,29.92,SW,215,7.0,18.0,92,0.14,,SKC,0.61,VWS V14.01,2013-04-05 12:47:00,
2013-04-05 08:52:00,66.8,64.7,29.91,South,191,10.0,18.0,93,0.16,,SKC,0.63,VWS V14.01,2013-04-05 12:52:00,
2013-04-05 08:57:00,66.8,64.7,29.91,SW,234,9.0,18.0,93,0.18,,SKC,0.65,VWS V14.01,2013-04-05 12:57:00,
2013-04-05 09:02:00,66.8,64.7,29.90,SSW,200,2.0,6.0,93,0.20,,SKC,0.67,VWS V14.01,2013-04-05 13:02:00,
2013-04-05 09:07:00,66.7,64.6,29.89,SSW,213,6.0,7.0,93,0.22,,SKC,0.69,VWS V14.01,2013-04-05 13:07:00,
2013-04-05 09:12:00,66.7,64.6,29.88,SSW,199,4.0,7.0,93,0.24,,SKC,0.71,VWS V14.01,2013-04-05 13:12:00,
2013-04-05 09:17:00,66.7,64.6,29.88,SE,145,4.0,7.0,93,0.25,,SKC,0.72,VWS V14.01,2013-04-05 13:17:00,
2013-04-05 09:22:00,66.7,64.9,29.88,South,191,1.0,7.0,94,0.25,,SKC,0.72,VWS V14.01,2013-04-05 13:22:00,
2013-04-05 09:27:00,66.7,64.9,29.89,SW,226,3.0,7.0,94,0.25,,SKC,0.72,VWS V14.01,2013-04-05 13:27:00,
2013-04-05 09:32:00,66.7,64.6,29.89,SSW,210,2.0,9.0,93,0.19,,SKC,0.72,VWS V14.01,2013-04-05 13:32:00,
2013-04-05 09:37:00,66.7,64.6,29.89,SW,227,0.0,9.0,93,0.19,,SKC,0.72,VWS V14.01,2013-04-05 13:37:00,
2013-04-05 09:42:00,66.8,64.7,29.89,WSW,248,4.0,9.0,93,0.19,,SKC,0.73,VWS V14.01,2013-04-05 13:42:00,
2013-04-05 09:47:00,66.9,65.1,29.89,WNW,292,2.0,9.0,94,0.20,,SKC,0.73,VWS V14.01,2013-04-05 13:47:00,
2013-04-05 09:52:00,67.1,65.3,29.89,WNW,290,4.0,9.0,94,0.20,,SKC,0.73,VWS V14.01,2013-04-05 13:52:00,
2013-04-05 09:57:00,67.2,65.4,29.89,WSW,257,4.0,9.0,94,0.20,,SKC,0.73,VWS V14.01,2013-04-05 13:57:00,
2013-04-05 10:02:00,67.4,65.6,29.89,West,277,2.0,4.0,94,0.07,,SKC,0.73,VWS V14.01,2013-04-05 14:02:00,
2013-04-05 10:07:00,67.7,65.9,29.89,SW,225,0.0,5.0,94,0.07,,SKC,0.73,VWS V14.01,2013-04-05 14:07:00,
2013-04-05 10:12:00,68.0,66.2,29.90,SSW,203,1.0,5.0,94,0.07,,SKC,0.73,VWS V14.01,2013-04-05 14:12:00,
2013-04-05 10:17:00,68.1,66.0,29.90,WSW,241,4.0,6.0,93,0.07,,SKC,0.73,VWS V14.01,2013-04-05 14:17:00,
2013-04-05 10:22:00,68.2,66.1,29.90,WSW,240,4.0,6.0,93,0.07,,SKC,0.73,VWS V14.01,2013-04-05 14:22:00,
2013-04-05 10:27:00,68.3,66.2,29.90,SW,234,1.0,6.0,93,0.07,,SKC,0.73,VWS V14.01,2013-04-05 14:27:00,
2013-04-05 10:32:00,68.3,66.2,29.90,SW,227,4.0,6.0,93,0.01,,SKC,0.73,VWS V14.01,2013-04-05 14:32:00,
2013-04-05 10:37:00,68.4,66.0,29.90,SW,222,3.0,6.0,92,0.01,,SKC,0.73,VWS V14.01,2013-04-05 14:37:00,
2013-04-05 10:42:00,68.5,66.1,29.90,SSW,209,1.0,6.0,92,0.01,,SKC,0.73,VWS V14.01,2013-04-05 14:42:00,
2013-04-05 10:47:00,68.5,66.1,29.90,SW,214,2.0,6.0,92,0.01,,SKC,0.73,VWS V14.01,2013-04-05 14:47:00,
2013-04-05 10:52:00,68.8,66.4,29.90,SW,218,1.0,8.0,92,0.01,,SKC,0.73,VWS V14.01,2013-04-05 14:52:00,
2013-04-05 10:57:00,69.0,66.6,29.90,SW,235,2.0,8.0,92,0.01,,SKC,0.73,VWS V14.01,2013-04-05 14:57:00,
2013-04-05 11:02:00,69.2,66.8,29.91,SW,226,4.0,6.0,92,0.00,,SKC,0.73,VWS V14.01,2013-04-05 15:02:00,
2013-04-05 11:07:00,69.3,66.6,29.91,South,175,4.0,8.0,91,0.00,,SKC,0.73,VWS V14.01,2013-04-05 15:07:00,
2013-04-05 11:12:00,69.5,66.8,29.91,SSW,204,7.0,11.0,91,0.00,,SKC,0.73,VWS V14.01,2013-04-05 15:12:00,
2013-04-05 11:17:00,69.9,66.8,29.90,SSW,198,4.0,11.0,90,0.00,,SKC,0.73,VWS V14.01,2013-04-05 15:17:00,
2013-04-05 11:22:00,70.3,66.9,29.90,SW,215,8.0,12.0,89,0.00,,SKC,0.73,VWS V14.01,2013-04-05 15:22:00,
2013-04-05 11:27:00,70.6,66.9,29.91,SW,225,6.0,12.0,88,0.00,,SKC,0.73,VWS V14.01,2013-04-05 15:27:00,
2013-04-05 11:33:00,70.8,66.7,29.90,South,178,5.0,10.0,87,0.00,,SKC,0.73,VWS V14.01,2013-04-05 15:33:00,
2013-04-05 11:37:00,70.9,66.8,29.89,SSW,199,5.0,10.0,87,0.00,,SKC,0.73,VWS V14.01,2013-04-05 15:37:00,
2013-04-05 11:43:00,70.9,66.8,29.90,WSW,257,4.0,10.0,87,0.00,,SKC,0.73,VWS V14.01,2013-04-05 15:43:00,
2013-04-05 11:47:00,70.9,67.2,29.90,SW,229,5.0,10.0,88,0.00,,SKC,0.73,VWS V14.01,2013-04-05 15:47:00,
2013-04-05 11:52:00,70.7,67.0,29.90,SW,214,5.0,10.0,88,0.00,,SKC,0.73,VWS V14.01,2013-04-05 15:52:00,
2013-04-05 11:58:00,70.5,66.8,29.89,West,263,4.0,10.0,88,0.00,,SKC,0.73,VWS V14.01,2013-04-05 15:58:00,
2013-04-05 12:03:00,70.6,67.2,29.90,South,169,7.0,9.0,89,0.00,,SKC,0.73,VWS V14.01,2013-04-05 16:03:00,
2013-04-05 12:08:00,70.6,67.2,29.90,SW,222,2.0,9.0,89,0.00,,SKC,0.73,VWS V14.01,2013-04-05 16:08:00,
2013-04-05 12:13:00,70.5,67.1,29.90,WSW,238,2.0,9.0,89,0.00,,SKC,0.73,VWS V14.01,2013-04-05 16:13:00,
2013-04-05 12:18:00,70.3,66.9,29.89,South,188,2.0,9.0,89,0.00,,SKC,0.73,VWS V14.01,2013-04-05 16:18:00,
2013-04-05 12:23:00,70.3,67.2,29.90,SW,214,4.0,9.0,90,0.00,,SKC,0.73,VWS V14.01,2013-04-05 16:23:00,
2013-04-05 12:28:00,70.1,67.0,29.90,SSW,199,1.0,9.0,90,0.01,,SKC,0.74,VWS V14.01,2013-04-05 16:28:00,
2013-04-05 12:33:00,69.9,66.8,29.90,SW,226,4.0,6.0,90,0.01,,SKC,0.74,VWS V14.01,2013-04-05 16:33:00,
2013-04-05 12:38:00,69.8,66.7,29.89,West,260,1.0,6.0,90,0.01,,SKC,0.74,VWS V14.01,2013-04-05 16:38:00,
2013-04-05 12:43:00,69.7,67.0,29.89,South,188,0.0,6.0,91,0.01,,SKC,0.74,VWS V14.01,2013-04-05 16:43:00,
2013-04-05 12:48:00,69.6,66.9,29.90,WSW,248,6.0,7.0,91,0.01,,SKC,0.74,VWS V14.01,2013-04-05 16:48:00,
2013-04-05 12:53:00,69.5,66.8,29.90,SSW,201,0.0,7.0,91,0.01,,SKC,0.74,VWS V14.01,2013-04-05 16:53:00,
2013-04-05 12:58:00,69.6,66.9,29.90,SW,214,3.0,7.0,91,0.01,,SKC,0.74,VWS V14.01,2013-04-05 16:58:00,
2013-04-05 13:03:00,69.8,67.1,29.89,WSW,241,0.0,5.0,91,0.01,,SKC,0.74,VWS V14.01,2013-04-05 17:03:00,
2013-04-05 13:40:00,70.6,66.9,29.88,WSW,253,6.0,6.0,88,0.00,,SKC,0.74,VWS V14.01,2013-04-05 17:40:00,
2013-04-05 13:45:00,70.6,66.9,29.88,WSW,250,4.0,12.0,88,0.00,,SKC,0.74,VWS V14.01,2013-04-05 17:45:00,
2013-04-05 13:52:00,70.5,66.4,29.88,WSW,244,5.0,12.0,87,0.00,,SKC,0.74,VWS V14.01,2013-04-05 17:52:00,
2013-04-05 13:57:00,70.2,66.5,29.88,SW,235,2.0,12.0,88,0.00,,SKC,0.74,VWS V14.01,2013-04-05 17:57:00,
2013-04-05 14:02:00,70.1,66.7,29.88,SW,227,1.0,7.0,89,0.00,,SKC,0.74,VWS V14.01,2013-04-05 18:02:00,
2013-04-05 14:07:00,69.9,66.5,29.88,SW,223,5.0,10.0,89,0.00,,SKC,0.74,VWS V14.01,2013-04-05 18:07:00,
2013-04-05 14:12:00,69.8,66.4,29.88,West,271,7.0,10.0,89,0.00,,SKC,0.74,VWS V14.01,2013-04-05 18:12:00,
2013-04-05 14:17:00,69.7,66.3,29.88,WSW,258,4.0,10.0,89,0.00,,SKC,0.74,VWS V14.01,2013-04-05 18:17:00,
2013-04-05 14:22:00,69.7,66.0,29.88,West,272,1.0,10.0,88,0.00,,SKC,0.74,VWS V14.01,2013-04-05 18:22:00,
2013-04-05 14:27:00,69.7,66.0,29.88,WSW,244,2.0,10.0,88,0.00,,SKC,0.74,VWS V14.01,2013-04-05 18:27:00,
2013-04-05 14:32:00,69.8,66.1,29.88,WSW,253,2.0,5.0,88,0.00,,SKC,0.74,VWS V14.01,2013-04-05 18:32:00,
2013-04-05 14:37:00,69.8,66.1,29.88,SSW,210,2.0,7.0,88,0.00,,SKC,0.74,VWS V14.01,2013-04-05 18:37:00,
2013-04-05 14:43:00,69.9,65.9,29.87,WSW,241,1.0,1.0,87,0.00,,SKC,0.74,VWS V14.01,2013-04-05 18:43:00,
2013-04-05 14:48:00,70.1,66.1,29.88,SSW,200,5.0,5.0,87,0.00,,SKC,0.74,VWS V14.01,2013-04-05 18:48:00,
2013-04-05 14:53:00,70.2,66.2,29.88,WSW,256,4.0,6.0,87,0.00,,SKC,0.74,VWS V14.01,2013-04-05 18:53:00,
2013-04-05 14:58:00,70.3,65.9,29.87,WSW,244,1.0,7.0,86,0.00,,SKC,0.74,VWS V14.01,2013-04-05 18:58:00,
2013-04-05 15:03:00,70.2,65.1,29.87,WSW,254,2.0,9.0,84,0.00,,SKC,0.74,VWS V14.01,2013-04-05 19:03:00,
2013-04-05 15:08:00,70.2,65.5,29.86,West,259,2.0,9.0,85,0.00,,SKC,0.74,VWS V14.01,2013-04-05 19:08:00,
2013-04-05 15:13:00,70.2,65.1,29.86,West,259,8.0,8.0,84,0.00,,SKC,0.74,VWS V14.01,2013-04-05 19:13:00,
2013-04-05 15:18:00,70.1,65.4,29.86,West,261,8.0,13.0,85,0.00,,SKC,0.74,VWS V14.01,2013-04-05 19:18:00,
2013-04-05 15:23:00,70.1,65.4,29.85,West,264,9.0,13.0,85,0.00,,SKC,0.74,VWS V14.01,2013-04-05 19:23:00,
2013-04-05 15:28:00,70.0,64.9,29.85,WSW,253,4.0,13.0,84,0.00,,SKC,0.74,VWS V14.01,2013-04-05 19:28:00,
2013-04-05 15:33:00,69.9,64.5,29.85,West,271,5.0,10.0,83,0.00,,SKC,0.74,VWS V14.01,2013-04-05 19:33:00,
2013-04-05 15:38:00,69.6,64.2,29.85,WSW,241,5.0,11.0,83,0.00,,SKC,0.74,VWS V14.01,2013-04-05 19:38:00,
2013-04-05 15:43:00,69.6,63.9,29.85,WSW,246,9.0,11.0,82,0.00,,SKC,0.74,VWS V14.01,2013-04-05 19:43:00,
2013-04-05 15:48:00,69.8,63.7,29.84,WSW,243,8.0,11.0,81,0.00,,SKC,0.74,VWS V14.01,2013-04-05 19:48:00,
2013-04-05 15:53:00,69.9,63.5,29.84,WSW,241,2.0,12.0,80,0.00,,SKC,0.74,VWS V14.01,2013-04-05 19:53:00,
2013-04-05 15:58:00,69.8,63.7,29.84,WNW,293,4.0,12.0,81,0.00,,SKC,0.74,VWS V14.01,2013-04-05 19:58:00,
2013-04-05 16:03:00,70.1,63.7,29.84,West,261,10.0,11.0,80,0.00,,SKC,0.74,VWS V14.01,2013-04-05 20:03:00,
2013-04-05 16:08:00,70.3,63.8,29.83,West,263,7.0,11.0,80,0.00,,SKC,0.74,VWS V14.01,2013-04-05 20:08:00,
2013-04-05 16:13:00,70.7,63.9,29.83,West,262,12.0,12.0,79,0.00,,SKC,0.74,VWS V14.01,2013-04-05 20:13:00,
2013-04-05 16:35:00,71.1,63.5,29.83,West,269,6.0,6.0,77,0.00,,SKC,0.74,VWS V14.01,2013-04-05 20:35:00,
2013-04-05 16:40:00,71.1,63.2,29.83,WNW,295,11.0,14.0,76,0.00,,SKC,0.74,VWS V14.01,2013-04-05 20:40:00,
2013-04-05 16:45:00,71.2,63.3,29.83,WSW,255,10.0,15.0,76,0.00,,SKC,0.74,VWS V14.01,2013-04-05 20:45:00,
2013-04-05 16:50:00,71.0,63.4,29.83,WSW,245,4.0,15.0,77,0.00,,SKC,0.74,VWS V14.01,2013-04-05 20:50:00,
2013-04-05 16:55:00,70.8,63.2,29.83,SW,233,11.0,15.0,77,0.00,,SKC,0.74,VWS V14.01,2013-04-05 20:55:00,
2013-04-05 17:00:00,70.8,63.2,29.83,West,281,5.0,6.0,77,0.00,,SKC,0.74,VWS V14.01,2013-04-05 21:00:00,
2013-04-05 17:05:00,70.9,63.3,29.82,WSW,246,5.0,11.0,77,0.00,,SKC,0.74,VWS V14.01,2013-04-05 21:05:00,
2013-04-05 17:10:00,71.2,64.0,29.83,WSW,256,11.0,11.0,78,0.00,,SKC,0.74,VWS V14.01,2013-04-05 21:10:00,
2013-04-05 17:15:00,71.5,63.9,29.83,WNW,285,1.0,11.0,77,0.00,,SKC,0.74,VWS V14.01,2013-04-05 21:15:00,
2013-04-05 17:20:00,71.8,63.8,29.82,NW,307,7.0,11.0,76,0.00,,SKC,0.74,VWS V14.01,2013-04-05 21:20:00,
2013-04-05 17:25:00,71.9,63.9,29.83,West,260,6.0,11.0,76,0.00,,SKC,0.74,VWS V14.01,2013-04-05 21:25:00,
2013-04-05 17:30:00,71.8,63.5,29.83,WNW,286,11.0,11.0,75,0.00,,SKC,0.74,VWS V14.01,2013-04-05 21:30:00,
2013-04-05 17:35:00,71.8,63.5,29.83,West,269,4.0,12.0,75,0.00,,SKC,0.74,VWS V14.01,2013-04-05 21:35:00,
2013-04-05 17:40:00,71.8,63.5,29.83,West,279,9.0,12.0,75,0.00,,SKC,0.74,VWS V14.01,2013-04-05 21:40:00,
2013-04-05 17:45:00,71.8,63.1,29.83,SW,225,11.0,14.0,74,0.00,,SKC,0.74,VWS V14.01,2013-04-05 21:45:00,
2013-04-05 17:51:00,71.7,62.6,29.83,WSW,250,5.0,14.0,73,0.00,,SKC,0.74,VWS V14.01,2013-04-05 21:51:00,
2013-04-05 17:56:00,71.6,61.7,29.83,West,279,7.0,15.0,71,0.00,,SKC,0.74,VWS V14.01,2013-04-05 21:56:00,
2013-04-05 18:01:00,71.4,61.1,29.83,NW,304,8.0,8.0,70,0.00,,SKC,0.74,VWS V14.01,2013-04-05 22:01:00,
2013-04-05 18:06:00,71.3,60.2,29.83,West,267,10.0,15.0,68,0.00,,SKC,0.74,VWS V14.01,2013-04-05 22:06:00,
2013-04-05 18:11:00,71.2,60.5,29.83,WNW,288,5.0,15.0,69,0.00,,SKC,0.74,VWS V14.01,2013-04-05 22:11:00,
2013-04-05 18:16:00,71.2,60.5,29.83,West,276,5.0,15.0,69,0.00,,SKC,0.74,VWS V14.01,2013-04-05 22:16:00,
2013-04-05 18:21:00,71.2,60.5,29.83,WNW,286,8.0,15.0,69,0.00,,SKC,0.74,VWS V14.01,2013-04-05 22:21:00,
2013-04-05 18:26:00,71.1,60.4,29.83,WNW,284,9.0,15.0,69,0.00,,SKC,0.74,VWS V14.01,2013-04-05 22:26:00,
2013-04-05 18:31:00,71.0,60.3,29.83,West,274,7.0,10.0,69,0.00,,SKC,0.74,VWS V14.01,2013-04-05 22:31:00,
2013-04-05 18:35:00,71.1,60.0,29.83,West,280,7.0,10.0,68,0.00,,SKC,0.74,VWS V14.01,2013-04-05 22:35:00,
2013-04-05 18:41:00,71.6,60.5,29.83,West,276,1.0,10.0,68,0.00,,SKC,0.74,VWS V14.01,2013-04-05 22:41:00,
2013-04-05 18:45:00,72.1,60.1,29.83,WNW,289,6.0,10.0,66,0.00,,SKC,0.74,VWS V14.01,2013-04-05 22:45:00,
2013-04-05 18:50:00,72.4,60.0,29.83,WNW,300,5.0,11.0,65,0.00,,SKC,0.74,VWS V14.01,2013-04-05 22:50:00,
2013-04-05 18:56:00,72.3,59.9,29.84,WNW,294,6.0,14.0,65,0.00,,SKC,0.74,VWS V14.01,2013-04-05 22:56:00,
2013-04-05 19:00:00,71.6,60.1,29.84,West,261,7.0,8.0,67,0.00,,SKC,0.74,VWS V14.01,2013-04-05 23:00:00,
2013-04-05 19:05:00,71.0,60.3,29.84,West,267,11.0,12.0,69,0.00,,SKC,0.74,VWS V14.01,2013-04-05 23:05:00,
2013-04-05 19:10:00,70.5,59.8,29.85,NNW,330,3.0,14.0,69,0.00,,SKC,0.74,VWS V14.01,2013-04-05 23:10:00,
2013-04-05 19:15:00,70.1,59.9,29.85,West,274,8.0,14.0,70,0.00,,SKC,0.74,VWS V14.01,2013-04-05 23:15:00,
2013-04-05 19:20:00,69.8,60.0,29.85,West,281,7.0,14.0,71,0.00,,SKC,0.74,VWS V14.01,2013-04-05 23:20:00,
2013-04-05 19:25:00,69.5,59.7,29.85,West,277,7.0,14.0,71,0.00,,SKC,0.74,VWS V14.01,2013-04-05 23:25:00,
2013-04-05 19:30:00,69.1,59.7,29.85,West,273,10.0,10.0,72,0.00,,SKC,0.74,VWS V14.01,2013-04-05 23:30:00,
2013-04-05 19:36:00,68.5,59.1,29.85,WSW,244,6.0,15.0,72,0.00,,SKC,0.74,VWS V14.01,2013-04-05 23:36:00,
2013-04-05 19:41:00,68.2,59.2,29.85,WNW,294,9.0,15.0,73,0.00,,SKC,0.74,VWS V14.01,2013-04-05 23:41:00,
2013-04-05 19:46:00,67.8,58.8,29.86,WNW,292,8.0,15.0,73,0.00,,SKC,0.74,VWS V14.01,2013-04-05 23:46:00,
2013-04-05 19:51:00,67.5,58.5,29.86,West,272,6.0,15.0,73,0.00,,SKC,0.74,VWS V14.01,2013-04-05 23:51:00,
2013-04-05 19:56:00,67.1,58.5,29.86,West,276,2.0,15.0,74,0.00,,SKC,0.74,VWS V14.01,2013-04-05 23:56:00,
2013-04-05 20:01:00,66.8,58.6,29.86,WNW,302,5.0,8.0,75,0.00,,SKC,0.74,VWS V14.01,2013-04-06 00:01:00,
2013-04-05 20:06:00,66.5,58.7,29.86,West,270,4.0,9.0,76,0.00,,SKC,0.74,VWS V14.01,2013-04-06 00:06:00,
2013-04-05 20:11:00,66.2,58.4,29.87,West,280,5.0,11.0,76,0.00,,SKC,0.74,VWS V14.01,2013-04-06 00:11:00,
2013-04-05 20:15:00,66.0,58.6,29.87,WNW,283,4.0,11.0,77,0.00,,SKC,0.74,VWS V14.01,2013-04-06 00:15:00,
2013-04-05 20:21:00,65.8,58.4,29.87,West,267,6.0,11.0,77,0.00,,SKC,0.74,VWS V14.01,2013-04-06 00:21:00,
2013-04-05 20:26:00,65.6,58.2,29.88,West,260,7.0,11.0,77,0.00,,SKC,0.74,VWS V14.01,2013-04-06 00:26:00,
2013-04-05 20:31:00,65.5,58.1,29.88,WNW,283,7.0,11.0,77,0.00,,SKC,0.74,VWS V14.01,2013-04-06 00:31:00,
2013-04-05 20:35:00,65.5,58.1,29.88,WNW,286,4.0,11.0,77,0.00,,SKC,0.74,VWS V14.01,2013-04-06 00:35:00,
2013-04-05 20:41:00,65.4,58.0,29.89,WNW,287,2.0,11.0,77,0.00,,SKC,0.74,VWS V14.01,2013-04-06 00:41:00,
2013-04-05 20:46:00,65.4,58.0,29.89,WNW,283,5.0,12.0,77,0.00,,SKC,0.74,VWS V14.01,2013-04-06 00:46:00,
2013-04-05 20:50:00,65.3,57.9,29.89,WNW,299,6.0,12.0,77,0.00,,SKC,0.74,VWS V14.01,2013-04-06 00:50:00,
2013-04-05 20:56:00,65.2,57.8,29.90,WNW,284,6.0,12.0,77,0.00,,SKC,0.74,VWS V14.01,2013-04-06 00:56:00,
2013-04-05 21:01:00,65.0,57.6,29.90,WNW,302,6.0,6.0,77,0.00,,SKC,0.74,VWS V14.01,2013-04-06 01:01:00,
2013-04-05 21:06:00,64.9,57.5,29.90,West,276,6.0,12.0,77,0.00,,SKC,0.74,VWS V14.01,2013-04-06 01:06:00,
2013-04-05 21:11:00,64.9,57.9,29.91,WSW,242,7.0,12.0,78,0.00,,SKC,0.74,VWS V14.01,2013-04-06 01:11:00,
2013-04-05 21:16:00,64.8,57.4,29.91,NW,313,7.0,12.0,77,0.00,,SKC,0.74,VWS V14.01,2013-04-06 01:16:00,
2013-04-05 21:21:00,64.7,57.7,29.91,West,279,8.0,12.0,78,0.00,,SKC,0.74,VWS V14.01,2013-04-06 01:21:00,
2013-04-05 21:26:00,64.6,57.6,29.92,West,268,4.0,12.0,78,0.00,,SKC,0.74,VWS V14.01,2013-04-06 01:26:00,
2013-04-05 21:31:00,64.4,57.4,29.92,West,273,4.0,8.0,78,0.00,,SKC,0.74,VWS V14.01,2013-04-06 01:31:00,
2013-04-05 21:36:00,64.2,57.6,29.92,WSW,253,2.0,8.0,79,0.00,,SKC,0.74,VWS V14.01,2013-04-06 01:36:00,
2013-04-05 21:41:00,64.0,57.7,29.92,West,279,2.0,8.0,80,0.00,,SKC,0.74,VWS V14.01,2013-04-06 01:41:00,
2013-04-05 21:46:00,63.7,58.1,29.92,West,280,4.0,8.0,82,0.00,,SKC,0.74,VWS V14.01,2013-04-06 01:46:00,
2013-04-05 21:51:00,63.4,57.8,29.92,WSW,240,2.0,8.0,82,0.00,,SKC,0.74,VWS V14.01,2013-04-06 01:51:00,
2013-04-05 21:56:00,63.3,58.1,29.92,WSW,257,1.0,8.0,83,0.00,,SKC,0.74,VWS V14.01,2013-04-06 01:56:00,
2013-04-05 22:01:00,63.0,58.1,29.93,WNW,286,2.0,5.0,84,0.00,,SKC,0.74,VWS V14.01,2013-04-06 02:01:00,
2013-04-05 22:06:00,63.0,58.1,29.93,WSW,250,5.0,8.0,84,0.00,,SKC,0.74,VWS V14.01,2013-04-06 02:06:00,
2013-04-05 22:11:00,63.0,58.1,29.93,West,275,2.0,8.0,84,0.00,,SKC,0.74,VWS V14.01,2013-04-06 02:11:00,
2013-04-05 22:16:00,63.0,58.4,29.93,West,279,5.0,8.0,85,0.00,,SKC,0.74,VWS V14.01,2013-04-06 02:16:00,
2013-04-05 22:22:00,63.2,58.6,29.93,WNW,292,4.0,8.0,85,0.00,,SKC,0.74,VWS V14.01,2013-04-06 02:22:00,
2013-04-05 22:27:00,63.3,58.7,29.93,West,276,5.0,8.0,85,0.00,,SKC,0.74,VWS V14.01,2013-04-06 02:27:00,
2013-04-05 22:32:00,63.4,58.8,29.93,WNW,285,4.0,9.0,85,0.00,,SKC,0.74,VWS V14.01,2013-04-06 02:32:00,
2013-04-05 22:37:00,63.5,58.9,29.93,NW,304,1.0,10.0,85,0.00,,SKC,0.74,VWS V14.01,2013-04-06 02:37:00,
2013-04-05 22:42:00,63.5,58.9,29.93,West,279,9.0,10.0,85,0.00,,SKC,0.74,VWS V14.01,2013-04-06 02:42:00,
2013-04-05 22:47:00,63.5,58.9,29.94,WNW,298,8.0,10.0,85,0.00,,SKC,0.74,VWS V14.01,2013-04-06 02:47:00,
2013-04-05 22:52:00,63.6,58.7,29.94,WNW,289,6.0,13.0,84,0.00,,SKC,0.74,VWS V14.01,2013-04-06 02:52:00,
2013-04-05 22:57:00,63.6,58.3,29.94,WNW,292,7.0,15.0,83,0.00,,SKC,0.74,VWS V14.01,2013-04-06 02:57:00,
2013-04-05 23:02:00,63.5,57.9,29.94,WNW,292,9.0,11.0,82,0.00,,SKC,0.74,VWS V14.01,2013-04-06 03:02:00,
2013-04-05 23:07:00,63.3,57.4,29.94,NW,308,9.0,15.0,81,0.00,,SKC,0.74,VWS V14.01,2013-04-06 03:07:00,
2013-04-05 23:12:00,63.2,57.3,29.94,West,277,10.0,15.0,81,0.00,,SKC,0.74,VWS V14.01,2013-04-06 03:12:00,
2013-04-05 23:17:00,63.1,57.2,29.94,WNW,292,7.0,15.0,81,0.00,,SKC,0.74,VWS V14.01,2013-04-06 03:17:00,
2013-04-05 23:22:00,63.0,57.1,29.94,NW,310,4.0,15.0,81,0.00,,SKC,0.74,VWS V14.01,2013-04-06 03:22:00,
2013-04-05 23:27:00,62.9,57.0,29.95,WSW,256,4.0,15.0,81,0.00,,SKC,0.74,VWS V14.01,2013-04-06 03:27:00,
2013-04-05 23:32:00,62.8,56.9,29.95,WNW,295,5.0,14.0,81,0.00,,SKC,0.74,VWS V14.01,2013-04-06 03:32:00,
2013-04-05 23:37:00,62.7,56.8,29.95,West,275,6.0,14.0,81,0.00,,SKC,0.74,VWS V14.01,2013-04-06 03:37:00,
2013-04-05 23:42:00,62.6,57.0,29.95,NW,307,6.0,14.0,82,0.00,,SKC,0.74,VWS V14.01,2013-04-06 03:42:00,
2013-04-05 23:47:00,62.5,56.9,29.95,WNW,291,2.0,14.0,82,0.00,,SKC,0.74,VWS V14.01,2013-04-06 03:47:00,
2013-04-05 23:52:00,62.5,56.9,29.95,WNW,294,8.0,14.0,82,0.00,,SKC,0.74,VWS V14.01,2013-04-06 03:52:00,
2013-04-05 23:57:00,62.5,56.9,29.95,WNW,286,5.0,14.0,82,0.00,,SKC,0.74,VWS V14.01,2013-04-06 03:57:00,